CheckWX is a tool to help pilots better visualize weather data.  It is not intended as a substitute for an official pre-flight weather briefing.

09:09:51 UTC

KBNA TAF
Nashville International Airport
Nashville, Tennessee, USA
KBNA 180814Z 1808/1906 18004KT 6SM BR VCSH OVC110 TEMPO 1809/1810 19006KT 5SM RA BR BKN040 FM181400 19007KT P6SM VCSH BKN025 FM181800 21008KT P6SM VCTS BKN050CB FM190100 20003KT P6SM OVC050

Jun-18@
08:00 UTC

Jun-18 @ 08:00 UTC

Jun-18@
14:00 UTC

Jun-18 @ 14:00 UTC

KBNA 180814Z 1808/1906 18004KT 6SM BR VCSH OVC110
Wind
  • 180° at 4 KTS
Conditions
Mist
Cloud Levels
  • Overcast at 11,000' AGL

Jun-18@
09:00 UTC

Jun-18 @ 09:00 UTC

Jun-18@
10:00 UTC

Jun-18 @ 10:00 UTC

TEMPO 1809/1810 19006KT 5SM RA BR BKN040

Temporary

Temporary Changes expected for less than half the time period

Wind
  • 190° at 6 KTS
Conditions
Rain, Mist
Cloud Levels
  • Broken at 4,000' AGL

Jun-18@
14:00 UTC

Jun-18 @ 14:00 UTC

Jun-18@
18:00 UTC

Jun-18 @ 18:00 UTC

FM181400 19007KT P6SM VCSH BKN025

From

From Standard forecast or significant change

Wind
  • 190° at 7 KTS
Cloud Levels
  • Broken at 2,500' AGL

Jun-18@
18:00 UTC

Jun-18 @ 18:00 UTC

Jun-19@
01:00 UTC

Jun-19 @ 01:00 UTC

FM181800 21008KT P6SM VCTS BKN050CB

From

From Standard forecast or significant change

Wind
  • 210° at 8 KTS
Conditions
Area Thunderstorm
Cloud Levels
  • Broken at 5,000' AGL

Jun-19@
01:00 UTC

Jun-19 @ 01:00 UTC

Jun-19@
06:00 UTC

Jun-19 @ 06:00 UTC

FM190100 20003KT P6SM OVC050

From

From Standard forecast or significant change

Wind
  • 200° at 3 KTS
Cloud Levels
  • Overcast at 5,000' AGL